Time;durP1;ratioP1;P1;durP2;ratioP2;P2;SDS_P1;SDS_P2;PMS_P1;PMS_P2;Temp;Humidity;BMP_temperature;BMP_pressure;BME280_temperature;BME280_humidity;BME280_pressure;Samples;Min_cycle;Max_cycle;Signal;HPM_P1;HPM_P2
2021/08/03 07:04:13;;;;;;;4.30;2.95;;;;;;;;;;13262850;22;20025;-88
2021/08/03 07:09:42;;;;;;;4.63;2.83;;;;;;;;;;12341512;22;19074619;-87
2021/08/03 07:14:43;;;;;;;9.10;3.10;;;;;;;;;;13169753;22;19999;-83
2021/08/03 07:19:44;;;;;;;4.68;3.10;;;;;;;;;;13200945;22;20003;-83
2021/08/03 07:24:47;;;;;;;6.53;3.83;;;;;;;;;;13171218;22;20056;-84
2021/08/03 07:29:48;;;;;;;9.48;5.20;;;;;;;;;;13213175;22;20015;-84
2021/08/03 07:34:49;;;;;;;6.32;3.72;;;;;;;;;;13187352;22;20006;-84
2021/08/03 07:39:50;;;;;;;6.57;4.15;;;;;;;;;;13186762;22;20058;-84
2021/08/03 07:44:51;;;;;;;6.78;3.85;;;;;;;;;;13181138;22;20009;-84
2021/08/03 07:49:52;;;;;;;6.28;3.72;;;;;;;;;;13182048;22;20006;-83
2021/08/03 07:54:54;;;;;;;9.38;4.88;;;;;;;;;;13202856;22;20088;-83
2021/08/03 07:59:55;;;;;;;10.85;5.50;;;;;;;;;;13199022;22;20081;-84
2021/08/03 08:05:02;;;;;;;8.60;4.88;;;;;;;;;;13169548;22;20028;-84
2021/08/03 08:10:09;;;;;;;9.65;6.18;;;;;;;;;;13173622;22;20342;-81
2021/08/03 08:15:15;;;;;;;8.32;5.30;;;;;;;;;;13211422;22;20009;-80
2021/08/03 08:20:16;;;;;;;8.75;5.20;;;;;;;;;;13185110;22;20002;-82
2021/08/03 08:25:17;;;;;;;7.75;4.93;;;;;;;;;;13203303;22;20065;-85
2021/08/03 08:30:18;;;;;;;9.73;4.47;;;;;;;;;;13178847;22;20007;-82
2021/08/03 08:35:19;;;;;;;8.32;4.72;;;;;;;;;;13180545;22;20008;-82
2021/08/03 08:40:21;;;;;;;8.65;5.80;;;;;;;;;;13174290;22;20002;-81
2021/08/03 08:45:22;;;;;;;8.50;4.65;;;;;;;;;;13200847;22;20003;-85
2021/08/03 08:50:25;;;;;;;7.65;4.05;;;;;;;;;;13172306;22;20002;-84
2021/08/03 08:55:26;;;;;;;8.15;3.95;;;;;;;;;;13196664;22;20009;-87
2021/08/03 09:00:27;;;;;;;6.80;3.63;;;;;;;;;;13171630;22;20302;-84
2021/08/03 09:05:28;;;;;;;6.53;3.38;;;;;;;;;;13190611;22;20011;-83
2021/08/03 09:10:32;;;;;;;7.80;3.72;;;;;;;;;;13174971;22;20487;-83
2021/08/03 09:15:35;;;;;;;5.95;3.20;;;;;;;;;;13194952;22;20006;-85
2021/08/03 09:20:37;;;;;;;7.82;3.25;;;;;;;;;;13193203;22;20048;-85
2021/08/03 09:25:38;;;;;;;7.95;3.10;;;;;;;;;;13161533;22;19999;-81
2021/08/03 09:30:39;;;;;;;6.35;3.42;;;;;;;;;;13158293;22;20002;-78
2021/08/03 09:35:45;;;;;;;6.13;2.90;;;;;;;;;;13161332;22;20042;-80
2021/08/03 09:40:46;;;;;;;4.07;2.72;;;;;;;;;;13188777;22;20030;-82
2021/08/03 09:45:47;;;;;;;3.97;2.88;;;;;;;;;;13161170;22;20013;-80
2021/08/03 09:50:51;;;;;;;5.93;2.60;;;;;;;;;;13163411;22;20005;-81
2021/08/03 09:55:52;;;;;;;8.07;3.40;;;;;;;;;;13167174;22;20006;-82
2021/08/03 10:00:53;;;;;;;7.30;3.50;;;;;;;;;;13172227;22;20335;-80
2021/08/03 10:05:54;;;;;;;4.35;2.63;;;;;;;;;;13163833;22;20114;-79
2021/08/03 10:10:55;;;;;;;5.30;3.40;;;;;;;;;;13161532;22;20371;-78
2021/08/03 10:15:56;;;;;;;6.57;2.88;;;;;;;;;;13159613;22;19999;-78
2021/08/03 10:20:57;;;;;;;4.85;2.63;;;;;;;;;;13164823;22;20003;-80
2021/08/03 10:25:58;;;;;;;5.45;2.95;;;;;;;;;;13164565;22;20315;-80
2021/08/03 10:30:59;;;;;;;6.82;3.05;;;;;;;;;;13164121;22;20081;-79
2021/08/03 10:36:00;;;;;;;6.05;3.10;;;;;;;;;;13162556;22;20346;-79
2021/08/03 10:41:03;;;;;;;7.75;5.72;;;;;;;;;;13169064;22;20065;-82
2021/08/03 10:46:07;;;;;;;4.60;2.97;;;;;;;;;;13171381;22;20002;-82
2021/08/03 10:51:17;;;;;;;4.07;2.38;;;;;;;;;;13194493;22;20022;-80
2021/08/03 10:56:20;;;;;;;3.85;2.50;;;;;;;;;;13199189;22;20019;-79
2021/08/03 11:01:40;;;;;;;4.05;2.28;;;;;;;;;;13192525;22;20010;-78
2021/08/03 11:06:41;;;;;;;4.70;2.53;;;;;;;;;;13161644;22;20010;-78
2021/08/03 11:11:42;;;;;;;5.05;2.53;;;;;;;;;;13162867;22;20017;-80
2021/08/03 11:16:45;;;;;;;3.20;2.20;;;;;;;;;;13162741;22;20089;-81
2021/08/03 11:21:45;;;;;;;4.50;2.90;;;;;;;;;;13196176;22;20452;-78
2021/08/03 11:26:46;;;;;;;4.68;3.05;;;;;;;;;;13173357;22;20010;-80
2021/08/03 11:31:58;;;;;;;4.95;3.10;;;;;;;;;;13162260;22;20135;-81
2021/08/03 11:36:59;;;;;;;9.00;2.92;;;;;;;;;;13189038;22;19998;-80
2021/08/03 11:42:00;;;;;;;3.42;2.45;;;;;;;;;;13164167;22;20006;-82
2021/08/03 11:47:09;;;;;;;4.13;2.40;;;;;;;;;;13191236;22;20052;-79
2021/08/03 11:52:23;;;;;;;4.10;2.63;;;;;;;;;;13166481;22;20204;-81
2021/08/03 11:57:28;;;;;;;5.00;2.30;;;;;;;;;;13181272;22;20002;-79
2021/08/03 12:02:29;;;;;;;4.72;2.50;;;;;;;;;;13213639;22;20449;-79
2021/08/03 12:07:30;;;;;;;4.40;2.58;;;;;;;;;;13193475;22;20030;-80
2021/08/03 12:12:32;;;;;;;3.88;2.72;;;;;;;;;;13190265;22;20003;-79
2021/08/03 12:17:34;;;;;;;4.85;2.53;;;;;;;;;;13162492;22;20089;-81
2021/08/03 12:22:35;;;;;;;4.55;2.70;;;;;;;;;;13187705;22;20002;-79
2021/08/03 12:27:41;;;;;;;4.10;2.58;;;;;;;;;;13188804;22;20358;-81
2021/08/03 12:32:42;;;;;;;4.88;2.60;;;;;;;;;;13196249;22;19999;-82
2021/08/03 12:37:43;;;;;;;4.68;2.70;;;;;;;;;;13167399;22;20002;-82
2021/08/03 12:42:48;;;;;;;4.10;2.60;;;;;;;;;;13168283;22;19998;-82
2021/08/03 12:48:03;;;;;;;4.05;2.70;;;;;;;;;;13190065;22;20071;-79
2021/08/03 12:53:04;;;;;;;6.43;2.25;;;;;;;;;;13159445;22;20006;-79
2021/08/03 12:58:05;;;;;;;6.55;2.70;;;;;;;;;;13159651;22;20497;-79
2021/08/03 13:03:08;;;;;;;5.13;2.50;;;;;;;;;;13188390;22;20060;-79
2021/08/03 13:08:10;;;;;;;4.43;2.20;;;;;;;;;;13159033;22;20433;-79
2021/08/03 13:13:11;;;;;;;3.75;2.70;;;;;;;;;;13188093;22;20037;-81
2021/08/03 13:18:12;;;;;;;4.70;2.80;;;;;;;;;;13189038;22;20010;-80
2021/08/03 13:23:13;;;;;;;4.22;2.85;;;;;;;;;;13161408;22;19998;-82
2021/08/03 13:28:14;;;;;;;4.93;2.83;;;;;;;;;;13196128;22;20024;-81
2021/08/03 13:33:15;;;;;;;5.50;3.08;;;;;;;;;;13166655;22;20093;-83
2021/08/03 13:38:16;;;;;;;5.40;2.97;;;;;;;;;;13166767;22;20029;-82
2021/08/03 13:43:17;;;;;;;4.60;2.45;;;;;;;;;;13166737;22;20033;-82
2021/08/03 13:48:17;;;;;;;3.05;2.60;;;;;;;;;;13168245;22;20047;-82
2021/08/03 13:53:18;;;;;;;4.63;2.75;;;;;;;;;;13168702;22;20021;-81
2021/08/03 13:58:19;;;;;;;5.97;3.08;;;;;;;;;;13205802;22;20037;-82
2021/08/03 14:03:20;;;;;;;4.75;2.88;;;;;;;;;;13160904;22;20020;-84
2021/08/03 14:08:21;;;;;;;6.03;3.55;;;;;;;;;;13157784;22;20120;-78
2021/08/03 14:13:22;;;;;;;7.25;4.65;;;;;;;;;;13158488;22;20061;-78
2021/08/03 14:18:24;;;;;;;5.47;3.13;;;;;;;;;;13160864;22;19998;-79
2021/08/03 14:23:25;;;;;;;5.03;3.35;;;;;;;;;;13160831;22;20350;-80
2021/08/03 14:28:26;;;;;;;4.68;2.97;;;;;;;;;;13161925;22;20005;-79
2021/08/03 14:33:27;;;;;;;7.00;4.78;;;;;;;;;;13160915;22;20005;-78
2021/08/03 14:38:28;;;;;;;6.03;3.83;;;;;;;;;;13160988;22;20002;-78
2021/08/03 14:43:29;;;;;;;5.32;3.33;;;;;;;;;;13166289;22;20005;-86
2021/08/03 14:48:30;;;;;;;5.40;2.63;;;;;;;;;;13172022;22;20002;-85
2021/08/03 14:53:31;;;;;;;4.95;3.75;;;;;;;;;;13172954;22;20149;-85
2021/08/03 14:58:32;;;;;;;3.97;2.83;;;;;;;;;;13175892;22;20433;-86
2021/08/03 15:03:33;;;;;;;6.40;3.40;;;;;;;;;;13174355;22;20003;-85
2021/08/03 15:08:37;;;;;;;6.78;3.85;;;;;;;;;;13170313;22;20037;-84
2021/08/03 15:13:39;;;;;;;4.78;2.60;;;;;;;;;;13217301;22;20024;-84
2021/08/03 15:18:40;;;;;;;8.45;2.97;;;;;;;;;;13205804;22;20006;-83
2021/08/03 15:23:41;;;;;;;3.80;2.83;;;;;;;;;;13203268;22;20013;-84
2021/08/03 15:28:41;;;;;;;4.72;2.90;;;;;;;;;;13181982;22;20017;-83
2021/08/03 15:33:42;;;;;;;8.52;2.83;;;;;;;;;;13175776;22;20025;-83
2021/08/03 15:38:43;;;;;;;4.78;2.90;;;;;;;;;;13178503;22;20044;-85
2021/08/03 15:43:45;;;;;;;4.93;3.28;;;;;;;;;;13192306;22;20060;-83
2021/08/03 15:48:46;;;;;;;4.20;2.97;;;;;;;;;;13231106;22;19983;-82
2021/08/03 15:53:47;;;;;;;6.20;3.20;;;;;;;;;;13182584;22;20022;-83
2021/08/03 15:58:48;;;;;;;4.43;3.10;;;;;;;;;;13169110;22;20017;-84
2021/08/03 16:03:49;;;;;;;6.75;2.90;;;;;;;;;;13169802;22;20430;-82
2021/08/03 16:08:50;;;;;;;3.97;2.72;;;;;;;;;;13168247;22;20006;-82
2021/08/03 16:13:51;;;;;;;6.95;4.47;;;;;;;;;;13169950;22;19998;-85
2021/08/03 16:18:53;;;;;;;3.35;2.47;;;;;;;;;;13169702;22;20002;-83
2021/08/03 16:23:55;;;;;;;5.53;3.70;;;;;;;;;;13197197;22;20017;-86
2021/08/03 16:28:57;;;;;;;5.85;4.00;;;;;;;;;;13174051;22;20002;-86
2021/08/03 16:50:57;;;;;;;4.63;3.45;;;;;;;;;;13203195;22;20006;-85
2021/08/03 16:56:02;;;;;;;7.20;3.38;;;;;;;;;;13174758;22;19994;-86
2021/08/03 17:01:04;;;;;;;4.95;4.07;;;;;;;;;;13202219;22;20002;-86
2021/08/03 17:06:08;;;;;;;4.10;2.90;;;;;;;;;;13174405;22;20017;-85
2021/08/03 17:11:28;;;;;;;5.60;3.40;;;;;;;;;;13174858;22;20002;-85
2021/08/03 17:16:30;;;;;;;6.73;4.33;;;;;;;;;;13202969;22;19994;-85
2021/08/03 17:21:32;;;;;;;5.78;3.70;;;;;;;;;;13198390;22;20002;-86
2021/08/03 17:26:33;;;;;;;5.50;3.42;;;;;;;;;;13172102;22;19999;-85
2021/08/03 17:31:55;;;;;;;6.65;4.85;;;;;;;;;;13173027;22;20006;-86
2021/08/03 18:05:31;;;;;;;5.22;3.88;;;;;;;;;;13208688;22;20002;-85
2021/08/03 18:10:33;;;;;;;4.25;3.15;;;;;;;;;;13208400;22;20006;-86
2021/08/03 18:32:55;;;;;;;5.22;3.45;;;;;;;;;;12844463;23;20036;-85
2021/08/03 18:38:39;;;;;;;3.70;2.20;;;;;;;;;;13054918;22;20003;-85
2021/08/03 18:44:02;;;;;;;5.00;2.90;;;;;;;;;;13197941;22;20032;-85
2021/08/03 18:55:19;;;;;;;3.45;2.42;;;;;;;;;;13218980;22;19998;-86
2021/08/03 19:46:38;;;;;;;3.65;2.22;;;;;;;;;;13210325;22;20010;-85
2021/08/03 19:51:40;;;;;;;;;;;;;;;;;;13200589;22;20018;-85
2021/08/03 19:57:01;;;;;;;3.60;2.40;;;;;;;;;;13199736;22;19900;-85
2021/08/03 20:02:08;;;;;;;5.63;3.58;;;;;;;;;;13175684;22;20339;-84
2021/08/03 20:07:11;;;;;;;4.13;2.42;;;;;;;;;;13175708;22;20006;-84
2021/08/03 20:17:55;;;;;;;4.65;3.30;;;;;;;;;;13167028;22;20014;-84
